Time;durP1;ratioP1;P1;durP2;ratioP2;P2;SDS_P1;SDS_P2;PMS_P1;PMS_P2;Temp;Humidity;BMP_temperature;BMP_pressure;BME280_temperature;BME280_humidity;BME280_pressure;Samples;Min_cycle;Max_cycle;Signal;HPM_P1;HPM_P2
2022/04/05 00:01:39;;;;;;;3.67;2.08;;;5.50;99.90;;;;;;605101;236;26630;-69
2022/04/05 00:04:06;;;;;;;2.50;2.30;;;5.40;99.90;;;;;;604368;235;26973;-69
2022/04/05 00:06:33;;;;;;;2.45;2.20;;;5.40;99.90;;;;;;606643;235;26610;-69
2022/04/05 00:09:01;;;;;;;2.20;2.10;;;5.40;99.90;;;;;;606027;235;26619;-69
2022/04/05 00:11:29;;;;;;;2.50;2.28;;;5.30;99.90;;;;;;606650;235;26665;-69
2022/04/05 00:13:57;;;;;;;2.62;1.90;;;5.20;99.90;;;;;;603827;236;26597;-69
2022/04/05 00:16:24;;;;;;;3.60;2.30;;;5.20;99.90;;;;;;605410;236;26847;-69
2022/04/05 00:18:51;;;;;;;1.58;1.48;;;5.20;99.90;;;;;;604109;238;26583;-68
2022/04/05 00:21:18;;;;;;;2.50;1.50;;;5.10;99.90;;;;;;604921;235;26967;-68
2022/04/05 00:23:46;;;;;;;3.20;1.42;;;5.10;99.90;;;;;;606066;237;27266;-68
2022/04/05 00:26:13;;;;;;;2.17;2.03;;;5.10;99.90;;;;;;605591;234;26635;-68
2022/04/05 00:28:40;;;;;;;3.40;1.50;;;5.10;99.90;;;;;;605460;237;26825;-68
2022/04/05 00:31:09;;;;;;;2.33;1.75;;;5.10;99.90;;;;;;605322;237;26587;-68
2022/04/05 00:33:36;;;;;;;2.58;1.90;;;5.10;99.90;;;;;;605176;237;26655;-67
2022/04/05 00:36:04;;;;;;;2.25;1.80;;;5.10;99.90;;;;;;605155;234;26649;-68
2022/04/05 00:38:31;;;;;;;2.40;1.87;;;5.10;99.90;;;;;;605141;238;26648;-68
2022/04/05 00:40:59;;;;;;;2.20;1.75;;;5.20;99.90;;;;;;604760;238;26827;-68
2022/04/05 00:43:25;;;;;;;1.75;1.62;;;5.10;99.90;;;;;;604695;237;26603;-68
2022/04/05 00:45:55;;;;;;;2.53;2.03;;;5.20;99.90;;;;;;604658;237;27165;-68
2022/04/05 00:48:32;;;;;;;2.55;1.80;;;5.20;99.90;;;;;;604731;237;26566;-68
2022/04/05 00:51:00;;;;;;;1.80;1.10;;;5.20;99.90;;;;;;604380;238;26591;-68
2022/04/05 00:53:27;;;;;;;3.45;1.83;;;5.30;99.90;;;;;;604905;238;26918;-67
2022/04/05 00:55:54;;;;;;;3.75;2.00;;;5.30;99.90;;;;;;604812;237;26610;-68
2022/04/05 00:58:21;;;;;;;4.57;2.00;;;5.30;99.90;;;;;;604683;237;26595;-67
2022/04/05 01:00:50;;;;;;;3.00;2.25;;;5.30;99.90;;;;;;604574;237;26606;-68
2022/04/05 01:03:18;;;;;;;2.47;1.80;;;5.40;99.90;;;;;;604623;237;26597;-68
2022/04/05 01:05:45;;;;;;;2.28;2.08;;;5.30;99.90;;;;;;604547;234;26627;-68
2022/04/05 01:08:12;;;;;;;2.97;1.73;;;5.40;99.90;;;;;;604579;237;26546;-68
2022/04/05 01:10:40;;;;;;;3.97;2.25;;;5.40;99.90;;;;;;604512;237;26818;-67
2022/04/05 01:13:07;;;;;;;1.77;1.67;;;5.40;99.90;;;;;;604643;237;26556;-68
2022/04/05 01:15:34;;;;;;;2.00;1.90;;;5.40;99.90;;;;;;604490;237;26856;-68
2022/04/05 01:18:03;;;;;;;2.97;1.80;;;5.50;99.90;;;;;;604534;238;26595;-68
2022/04/05 01:20:32;;;;;;;2.00;1.58;;;5.50;99.90;;;;;;604524;237;26617;-67
2022/04/05 01:22:58;;;;;;;2.35;1.65;;;5.50;99.90;;;;;;604500;238;26575;-67
2022/04/05 01:25:26;;;;;;;1.75;1.40;;;5.50;99.90;;;;;;604506;238;26629;-67
2022/04/05 01:27:54;;;;;;;2.65;1.92;;;5.60;99.90;;;;;;604652;238;26797;-68
2022/04/05 01:30:21;;;;;;;2.10;1.50;;;5.60;99.90;;;;;;604624;237;26801;-68
2022/04/05 01:32:49;;;;;;;3.95;1.40;;;5.60;99.90;;;;;;604841;235;26582;-68
2022/04/05 01:35:16;;;;;;;2.17;2.00;;;5.60;99.90;;;;;;606046;236;26735;-68
2022/04/05 01:37:43;;;;;;;1.60;1.42;;;5.60;99.90;;;;;;605709;237;26627;-67
2022/04/05 01:40:12;;;;;;;3.00;1.60;;;5.70;99.90;;;;;;605409;232;26578;-67
2022/04/05 01:42:40;;;;;;;4.90;1.52;;;5.60;99.90;;;;;;605267;236;26586;-68
2022/04/05 01:45:08;;;;;;;1.83;1.73;;;5.60;99.90;;;;;;605143;238;26634;-67
2022/04/05 01:47:38;;;;;;;3.47;1.45;;;5.60;99.90;;;;;;605141;238;26641;-67
2022/04/05 01:50:03;;;;;;;1.60;1.40;;;5.60;99.90;;;;;;605494;237;26595;-67
2022/04/05 01:52:31;;;;;;;5.20;1.60;;;5.60;99.90;;;;;;605272;238;26796;-65
2022/04/05 01:54:58;;;;;;;5.20;1.90;;;5.60;99.90;;;;;;605248;238;26554;-68
2022/04/05 01:57:25;;;;;;;4.95;1.90;;;5.60;99.90;;;;;;605254;237;26582;-68
2022/04/05 01:59:53;;;;;;;3.53;1.85;;;5.60;99.90;;;;;;605063;237;26587;-67
2022/04/05 02:02:21;;;;;;;2.28;1.67;;;5.60;99.90;;;;;;604691;237;26795;-68
2022/04/05 02:04:48;;;;;;;3.70;1.62;;;5.60;99.90;;;;;;604810;238;26855;-68
2022/04/05 02:07:15;;;;;;;5.97;1.77;;;5.60;99.90;;;;;;604845;238;26614;-68
2022/04/05 02:09:42;;;;;;;4.25;1.65;;;5.60;99.90;;;;;;604619;238;27317;-68
2022/04/05 02:12:10;;;;;;;2.33;1.50;;;5.60;99.90;;;;;;604556;237;26581;-68
2022/04/05 02:14:38;;;;;;;2.03;1.77;;;5.60;99.90;;;;;;604394;235;26625;-67
2022/04/05 02:17:06;;;;;;;4.35;1.80;;;5.60;99.90;;;;;;609806;235;26665;-69
2022/04/05 02:19:34;;;;;;;1.90;1.70;;;5.60;99.90;;;;;;609824;235;26826;-70
2022/04/05 02:22:00;;;;;;;2.62;2.15;;;5.60;99.90;;;;;;609850;235;26566;-68
2022/04/05 02:24:28;;;;;;;2.33;1.67;;;5.60;99.90;;;;;;609796;236;26615;-69
2022/04/05 02:26:55;;;;;;;1.75;1.50;;;5.60;99.90;;;;;;609897;236;26601;-69
2022/04/05 02:29:23;;;;;;;3.95;1.70;;;5.50;99.90;;;;;;609836;231;26565;-69
2022/04/05 02:31:51;;;;;;;1.73;1.62;;;5.60;99.90;;;;;;609859;236;26597;-68
2022/04/05 02:34:18;;;;;;;2.10;1.65;;;5.60;99.90;;;;;;609789;236;26828;-69
2022/04/05 02:36:45;;;;;;;3.37;1.90;;;5.60;99.90;;;;;;609856;235;26624;-68
2022/04/05 02:39:13;;;;;;;3.55;1.67;;;5.60;99.90;;;;;;609848;236;26830;-69
2022/04/05 02:41:41;;;;;;;3.65;1.60;;;5.60;99.90;;;;;;609855;235;26578;-68
2022/04/05 02:44:09;;;;;;;2.50;1.70;;;5.60;99.90;;;;;;609846;235;26597;-68
2022/04/05 02:46:36;;;;;;;4.15;1.80;;;5.60;99.90;;;;;;611533;233;26660;-69
2022/04/05 02:49:03;;;;;;;1.73;1.62;;;5.50;99.90;;;;;;611009;235;26590;-69
2022/04/05 02:51:30;;;;;;;2.40;1.48;;;5.50;99.90;;;;;;610753;235;26809;-68
2022/04/05 02:53:59;;;;;;;2.45;1.70;;;5.50;99.90;;;;;;610658;235;26600;-68
2022/04/05 02:56:25;;;;;;;2.42;1.80;;;5.50;99.90;;;;;;610823;236;26591;-69
2022/04/05 02:58:53;;;;;;;2.08;1.70;;;5.60;99.90;;;;;;610807;236;26553;-68
2022/04/05 03:01:21;;;;;;;1.95;1.65;;;5.60;99.90;;;;;;610486;236;26586;-68
2022/04/05 03:03:49;;;;;;;2.33;1.33;;;5.60;99.90;;;;;;610259;236;26632;-68
2022/04/05 03:06:17;;;;;;;3.75;1.62;;;5.60;99.90;;;;;;610035;235;26656;-68
2022/04/05 03:08:44;;;;;;;2.20;1.30;;;5.60;99.90;;;;;;610193;236;27088;-68
2022/04/05 03:11:12;;;;;;;1.62;1.52;;;5.60;99.90;;;;;;610197;235;26609;-69
2022/04/05 03:13:39;;;;;;;2.15;1.42;;;5.60;99.90;;;;;;610176;235;26877;-69
2022/04/05 03:16:06;;;;;;;5.00;1.70;;;5.50;99.90;;;;;;610124;236;26653;-68
2022/04/05 03:18:33;;;;;;;1.90;1.70;;;5.60;99.90;;;;;;610165;236;26629;-68
2022/04/05 03:21:01;;;;;;;3.00;1.75;;;5.50;99.90;;;;;;610036;235;26585;-69
2022/04/05 03:23:29;;;;;;;1.75;1.62;;;5.50;99.90;;;;;;609854;236;26607;-69
2022/04/05 03:25:56;;;;;;;1.60;1.40;;;5.50;99.90;;;;;;609773;236;26845;-70
2022/04/05 03:28:23;;;;;;;1.60;1.50;;;5.50;99.90;;;;;;609880;235;26573;-70
2022/04/05 03:30:50;;;;;;;2.30;1.55;;;5.50;99.90;;;;;;609900;235;26813;-69
2022/04/05 03:33:18;;;;;;;3.42;1.80;;;5.50;99.90;;;;;;609862;236;26584;-67
2022/04/05 03:35:46;;;;;;;1.67;1.58;;;5.40;99.90;;;;;;609799;236;26870;-69
2022/04/05 03:38:13;;;;;;;2.00;1.80;;;5.40;99.90;;;;;;609802;236;26596;-68
2022/04/05 03:40:40;;;;;;;1.20;1.10;;;5.40;99.90;;;;;;609829;235;26604;-69
2022/04/05 03:43:11;;;;;;;1.37;1.30;;;5.50;99.90;;;;;;609871;235;26585;-69
2022/04/05 03:45:34;;;;;;;1.73;1.60;;;5.50;99.90;;;;;;609817;236;26849;-69
2022/04/05 03:48:01;;;;;;;1.42;1.33;;;5.40;99.90;;;;;;609937;236;26643;-70
2022/04/05 03:50:30;;;;;;;3.20;1.80;;;5.40;99.90;;;;;;609839;235;26616;-69
2022/04/05 03:52:59;;;;;;;1.58;1.45;;;5.40;99.90;;;;;;610238;236;26565;-69
2022/04/05 03:55:24;;;;;;;1.45;1.30;;;5.40;99.90;;;;;;610109;236;26605;-68
2022/04/05 03:57:51;;;;;;;1.48;1.37;;;5.40;99.90;;;;;;611763;233;26553;-69
2022/04/05 04:00:18;;;;;;;3.15;1.50;;;5.40;99.90;;;;;;611414;235;26838;-69
2022/04/05 04:02:45;;;;;;;2.85;1.48;;;5.40;99.90;;;;;;611139;235;26547;-68
2022/04/05 04:05:20;;;;;;;3.95;1.73;;;5.50;99.90;;;;;;611032;235;26978;-69
2022/04/05 04:07:40;;;;;;;2.10;1.70;;;5.50;99.90;;;;;;610803;235;26552;-69
2022/04/05 04:10:08;;;;;;;1.67;1.58;;;5.50;99.90;;;;;;610853;235;26599;-69
2022/04/05 04:12:34;;;;;;;1.42;1.33;;;5.50;99.90;;;;;;610564;236;26572;-68
2022/04/05 04:15:02;;;;;;;1.70;1.37;;;5.50;99.90;;;;;;610293;235;26587;-70
2022/04/05 04:17:29;;;;;;;2.20;1.60;;;5.50;99.90;;;;;;610146;235;26845;-69
2022/04/05 04:19:56;;;;;;;2.17;1.30;;;5.60;99.90;;;;;;610148;236;26620;-69
2022/04/05 04:22:23;;;;;;;1.67;1.50;;;5.60;99.90;;;;;;610173;235;26797;-69
2022/04/05 04:24:52;;;;;;;1.55;1.45;;;5.50;99.90;;;;;;610105;236;26623;-69
2022/04/05 04:27:18;;;;;;;3.30;1.60;;;5.50;99.90;;;;;;610105;236;26660;-69
2022/04/05 04:29:46;;;;;;;5.72;1.70;;;5.50;99.90;;;;;;610208;236;26609;-69
2022/04/05 04:32:13;;;;;;;1.50;1.40;;;5.50;99.90;;;;;;610063;236;26834;-69
2022/04/05 04:34:40;;;;;;;1.62;1.50;;;5.50;99.90;;;;;;609827;236;26581;-69
2022/04/05 04:37:07;;;;;;;1.50;1.40;;;5.50;99.90;;;;;;609883;235;27205;-69
2022/04/05 04:39:37;;;;;;;2.78;1.60;;;5.40;99.90;;;;;;609877;235;26581;-69
2022/04/05 04:42:03;;;;;;;1.65;1.42;;;5.40;99.90;;;;;;609768;236;26603;-69
2022/04/05 04:44:31;;;;;;;3.10;1.50;;;5.40;99.90;;;;;;609809;235;26848;-68
2022/04/05 04:46:59;;;;;;;1.48;1.33;;;5.40;99.90;;;;;;609844;236;26613;-70
2022/04/05 04:49:27;;;;;;;2.95;1.35;;;5.40;99.90;;;;;;609837;236;26829;-69
2022/04/05 04:51:54;;;;;;;1.27;1.27;;;5.40;99.90;;;;;;609903;236;26592;-68
2022/04/05 04:54:21;;;;;;;2.47;1.70;;;5.50;99.90;;;;;;609891;236;26850;-70
2022/04/05 04:56:49;;;;;;;1.98;1.58;;;5.50;99.90;;;;;;609840;236;26635;-69
2022/04/05 04:59:17;;;;;;;2.67;1.50;;;5.50;99.90;;;;;;609810;231;26581;-70
2022/04/05 05:01:45;;;;;;;4.15;1.80;;;5.50;99.90;;;;;;609841;235;26577;-69
2022/04/05 05:04:12;;;;;;;2.72;1.70;;;5.40;99.90;;;;;;609836;236;26831;-69
2022/04/05 05:06:39;;;;;;;5.70;1.92;;;5.50;99.90;;;;;;609872;236;26607;-69
2022/04/05 05:09:06;;;;;;;1.55;1.35;;;5.50;99.90;;;;;;611228;233;26863;-70
2022/04/05 05:11:34;;;;;;;2.17;1.33;;;5.50;99.90;;;;;;611108;234;26599;-69
2022/04/05 05:14:03;;;;;;;2.15;1.30;;;5.50;99.90;;;;;;610731;235;26595;-70
2022/04/05 05:16:30;;;;;;;1.75;1.40;;;5.50;99.90;;;;;;610680;235;26604;-69
2022/04/05 05:18:57;;;;;;;2.58;1.73;;;5.60;99.90;;;;;;610360;235;26622;-69
2022/04/05 05:21:24;;;;;;;1.90;1.50;;;5.60;99.90;;;;;;610454;235;26821;-69
2022/04/05 05:23:51;;;;;;;1.85;1.30;;;5.60;99.90;;;;;;610431;236;26569;-70
2022/04/05 05:26:18;;;;;;;1.85;1.42;;;5.70;99.90;;;;;;610338;235;26596;-69
2022/04/05 05:28:46;;;;;;;1.55;1.45;;;5.70;99.90;;;;;;610155;236;26633;-69
2022/04/05 05:31:14;;;;;;;2.12;1.30;;;5.70;99.90;;;;;;610164;236;26713;-69
2022/04/05 05:33:42;;;;;;;2.22;1.30;;;5.70;99.90;;;;;;610163;236;26931;-69
2022/04/05 05:36:09;;;;;;;2.90;1.45;;;5.70;99.90;;;;;;610147;236;27339;-69
2022/04/05 05:38:37;;;;;;;1.30;1.20;;;5.60;99.90;;;;;;610256;236;26620;-69
2022/04/05 05:41:04;;;;;;;3.03;1.67;;;5.60;99.90;;;;;;610133;232;27142;-69
2022/04/05 05:43:32;;;;;;;2.60;1.58;;;5.70;99.90;;;;;;610116;235;26584;-70
2022/04/05 05:46:03;;;;;;;1.60;1.35;;;5.70;99.90;;;;;;609797;235;26611;-69
2022/04/05 05:48:27;;;;;;;4.65;1.40;;;5.70;99.90;;;;;;604379;236;27007;-69
2022/04/05 05:50:55;;;;;;;4.10;1.80;;;5.70;99.90;;;;;;609969;236;26592;-69
2022/04/05 05:53:21;;;;;;;5.60;2.62;;;5.70;99.90;;;;;;609911;236;26832;-69
2022/04/05 05:55:48;;;;;;;3.33;1.73;;;5.80;99.90;;;;;;609834;235;26628;-69
2022/04/05 05:58:16;;;;;;;3.08;1.73;;;5.80;99.90;;;;;;609774;235;26572;-69
2022/04/05 06:00:44;;;;;;;2.15;1.62;;;5.80;99.90;;;;;;609789;235;26611;-69
2022/04/05 06:03:12;;;;;;;2.90;1.67;;;5.80;99.90;;;;;;609736;236;26581;-69
2022/04/05 06:05:39;;;;;;;4.80;1.60;;;5.80;99.90;;;;;;609748;235;27314;-68
2022/04/05 06:08:07;;;;;;;1.75;1.50;;;5.80;99.90;;;;;;609758;236;26605;-69
2022/04/05 06:10:34;;;;;;;3.85;1.75;;;5.90;99.90;;;;;;609808;236;26593;-69
2022/04/05 06:13:02;;;;;;;3.70;2.10;;;6.10;99.90;;;;;;609761;236;27257;-69
2022/04/05 06:15:29;;;;;;;2.37;1.65;;;6.00;99.90;;;;;;609718;235;26850;-70
2022/04/05 06:17:58;;;;;;;3.92;1.80;;;6.10;99.90;;;;;;609781;236;26573;-69
2022/04/05 06:20:24;;;;;;;2.70;2.05;;;6.10;99.40;;;;;;610856;233;26801;-69
2022/04/05 06:22:52;;;;;;;3.05;1.77;;;6.10;98.80;;;;;;610916;234;26557;-69
2022/04/05 06:25:19;;;;;;;1.98;1.50;;;6.10;98.80;;;;;;611156;235;26616;-70
2022/04/05 06:27:46;;;;;;;1.85;1.75;;;6.10;98.70;;;;;;611073;235;26798;-70
2022/04/05 06:30:14;;;;;;;3.15;1.98;;;6.10;99.00;;;;;;610454;235;26595;-70
2022/04/05 06:32:41;;;;;;;2.60;1.98;;;6.20;99.20;;;;;;610331;235;26881;-69
2022/04/05 06:35:08;;;;;;;5.25;2.10;;;6.20;99.00;;;;;;610301;235;26573;-69
2022/04/05 06:37:36;;;;;;;1.83;1.60;;;6.30;99.00;;;;;;610321;236;26585;-69
2022/04/05 06:40:05;;;;;;;1.67;1.55;;;6.40;98.90;;;;;;610115;235;26672;-69
2022/04/05 06:42:32;;;;;;;2.55;1.70;;;6.30;98.90;;;;;;610107;235;26592;-69
2022/04/05 06:44:59;;;;;;;4.32;1.87;;;6.30;98.90;;;;;;609978;235;26866;-68
2022/04/05 06:47:28;;;;;;;3.03;1.90;;;6.30;98.90;;;;;;609985;230;26690;-69
2022/04/05 06:49:55;;;;;;;2.78;1.80;;;6.30;98.80;;;;;;609981;236;26659;-68
2022/04/05 06:52:23;;;;;;;3.60;1.90;;;6.30;98.80;;;;;;610094;236;26589;-68
2022/04/05 06:54:50;;;;;;;2.47;1.83;;;6.40;98.60;;;;;;610077;236;26637;-68
2022/04/05 06:57:17;;;;;;;1.50;1.40;;;6.50;98.80;;;;;;609842;235;27258;-67
2022/04/05 06:59:44;;;;;;;4.35;1.85;;;6.40;97.50;;;;;;609894;236;26584;-67
2022/04/05 07:02:12;;;;;;;2.20;1.83;;;6.40;98.00;;;;;;609824;236;26585;-69
2022/04/05 07:04:40;;;;;;;2.65;1.55;;;6.10;96.50;;;;;;609820;236;26557;-68
2022/04/05 07:07:07;;;;;;;2.92;1.98;;;6.30;96.80;;;;;;609838;231;26613;-69
2022/04/05 07:09:35;;;;;;;3.75;1.75;;;6.30;96.80;;;;;;609907;236;26817;-69
2022/04/05 07:12:02;;;;;;;12.43;3.03;;;6.40;96.50;;;;;;609925;236;26584;-70
2022/04/05 07:14:30;;;;;;;5.57;2.00;;;6.60;96.30;;;;;;609784;235;26561;-69
2022/04/05 07:16:58;;;;;;;4.45;1.85;;;6.70;96.40;;;;;;609784;236;26639;-70
2022/04/05 07:19:25;;;;;;;5.18;1.90;;;6.70;96.40;;;;;;609836;236;26599;-69
2022/04/05 07:21:52;;;;;;;4.87;1.90;;;6.70;95.90;;;;;;609846;235;26588;-69
2022/04/05 07:24:19;;;;;;;4.70;1.70;;;6.80;96.00;;;;;;609801;236;26818;-69
2022/04/05 07:26:47;;;;;;;3.45;2.25;;;6.80;95.40;;;;;;609840;235;26628;-69
2022/04/05 07:29:14;;;;;;;4.68;2.00;;;6.90;95.20;;;;;;609898;235;26890;-70
2022/04/05 07:31:42;;;;;;;3.90;1.83;;;6.70;93.90;;;;;;610809;233;26591;-70
2022/04/05 07:34:10;;;;;;;3.58;1.80;;;6.80;93.80;;;;;;611108;231;26594;-69
2022/04/05 07:36:37;;;;;;;5.18;2.03;;;6.70;93.70;;;;;;610810;235;26911;-69
2022/04/05 07:39:04;;;;;;;1.65;1.45;;;6.70;93.10;;;;;;610764;235;26572;-69
2022/04/05 07:41:32;;;;;;;4.82;2.15;;;6.80;92.90;;;;;;610516;230;26815;-70
2022/04/05 07:43:59;;;;;;;5.43;1.98;;;7.00;93.30;;;;;;610382;236;26830;-69
2022/04/05 07:46:27;;;;;;;4.30;1.80;;;6.90;92.00;;;;;;610448;235;26569;-69
2022/04/05 07:48:54;;;;;;;2.67;1.60;;;6.90;92.00;;;;;;610407;235;26813;-69
2022/04/05 07:51:22;;;;;;;4.90;1.50;;;6.90;92.30;;;;;;610147;230;26625;-70
2022/04/05 07:53:49;;;;;;;5.10;1.60;;;6.90;92.20;;;;;;610123;236;27348;-70
2022/04/05 07:56:16;;;;;;;2.10;1.48;;;7.00;91.90;;;;;;606285;235;26586;-70
2022/04/05 07:58:45;;;;;;;2.75;1.50;;;7.20;91.90;;;;;;603528;238;26593;-70
2022/04/05 08:01:13;;;;;;;3.28;1.40;;;7.10;91.50;;;;;;604898;236;26596;-70
2022/04/05 08:03:40;;;;;;;5.12;1.75;;;7.00;91.50;;;;;;606052;235;26590;-70
2022/04/05 08:06:08;;;;;;;10.65;2.40;;;7.10;91.80;;;;;;605709;236;26628;-68
2022/04/05 08:08:34;;;;;;;5.32;1.62;;;7.10;91.30;;;;;;602490;237;26856;-67
2022/04/05 08:11:01;;;;;;;4.07;1.77;;;7.10;90.90;;;;;;603010;237;26597;-68
2022/04/05 08:13:29;;;;;;;5.12;1.40;;;7.10;90.50;;;;;;606956;235;26843;-68
2022/04/05 08:15:57;;;;;;;6.35;1.83;;;7.10;90.00;;;;;;604383;234;26620;-66
2022/04/05 08:18:25;;;;;;;11.50;2.47;;;7.30;89.30;;;;;;607812;235;26586;-71
2022/04/05 08:20:53;;;;;;;8.90;1.77;;;7.50;89.30;;;;;;602841;238;26673;-70
2022/04/05 08:23:20;;;;;;;4.05;1.37;;;7.40;88.70;;;;;;607856;236;26883;-70
2022/04/05 08:25:47;;;;;;;2.33;1.40;;;7.20;87.40;;;;;;605453;235;26608;-70
2022/04/05 08:28:15;;;;;;;6.53;1.75;;;7.10;85.10;;;;;;605502;236;26820;-70
2022/04/05 08:30:42;;;;;;;6.43;1.80;;;7.40;83.60;;;;;;606801;236;26590;-70
2022/04/05 08:33:09;;;;;;;2.58;1.48;;;7.30;83.50;;;;;;601550;233;26806;-70
2022/04/05 08:35:37;;;;;;;2.42;1.37;;;7.20;83.30;;;;;;601538;237;26643;-70
2022/04/05 08:38:03;;;;;;;2.40;1.50;;;7.20;83.00;;;;;;601456;237;27302;-70
2022/04/05 08:40:31;;;;;;;5.47;1.83;;;7.50;82.10;;;;;;603933;236;26643;-70
2022/04/05 08:42:59;;;;;;;1.77;1.33;;;7.60;82.10;;;;;;610658;233;26580;-71
2022/04/05 08:45:26;;;;;;;71.90;12.90;;;7.60;82.00;;;;;;605607;234;26642;-67
2022/04/05 08:47:55;;;;;;;239.32;26.65;;;7.70;81.40;;;;;;602534;237;26574;-68
2022/04/05 08:50:24;;;;;;;1999.90;206.45;;;7.70;80.00;;;;;;605250;235;27264;-68
2022/04/05 08:52:51;;;;;;;1999.90;411.92;;;7.70;80.00;;;;;;602116;237;26608;-68
2022/04/05 08:55:19;;;;;;;1999.90;391.63;;;7.40;79.60;;;;;;601973;236;26585;-69
2022/04/05 08:57:47;;;;;;;1999.90;339.63;;;7.50;79.60;;;;;;604567;237;26590;-69
2022/04/05 09:00:19;;;;;;;91.20;20.80;;;7.50;77.80;;;;;;604591;237;26643;-67
2022/04/05 09:02:54;;;;;;;91.80;19.67;;;7.50;78.80;;;;;;603250;238;26570;-67
2022/04/05 09:05:27;;;;;;;78.03;16.98;;;7.50;78.80;;;;;;602833;233;26582;-66
2022/04/05 09:07:55;;;;;;;53.60;14.13;;;8.10;77.80;;;;;;604345;237;26793;-66
2022/04/05 09:10:22;;;;;;;48.55;12.15;;;8.00;77.70;;;;;;601412;236;26978;-66
2022/04/05 09:12:50;;;;;;;41.00;11.27;;;8.20;76.50;;;;;;610113;235;26644;-66
2022/04/05 09:15:25;;;;;;;37.47;9.95;;;8.10;77.10;;;;;;604923;236;26579;-66
2022/04/05 09:17:53;;;;;;;39.55;10.77;;;8.70;76.30;;;;;;604353;238;26786;-66
2022/04/05 09:20:20;;;;;;;30.48;8.73;;;8.70;76.30;;;;;;602185;237;26847;-67
2022/04/05 09:22:48;;;;;;;23.48;7.78;;;8.50;74.70;;;;;;607760;235;26575;-67
2022/04/05 09:25:15;;;;;;;17.33;5.57;;;8.40;75.30;;;;;;605825;230;27273;-67
2022/04/05 09:27:48;;;;;;;10.73;4.18;;;8.20;76.40;;;;;;604144;237;26617;-67
2022/04/05 09:30:17;;;;;;;21.12;6.18;;;8.40;75.80;;;;;;608284;236;26586;-67
2022/04/05 09:32:47;;;;;;;10.18;3.40;;;8.40;75.70;;;;;;604696;236;26858;-67
2022/04/05 09:35:11;;;;;;;12.15;3.62;;;8.60;75.80;;;;;;604865;236;26597;-69
2022/04/05 09:37:39;;;;;;;11.10;3.92;;;8.50;74.40;;;;;;603852;237;26801;-68
2022/04/05 09:40:12;;;;;;;5.62;2.37;;;8.40;74.40;;;;;;601699;238;26628;-67
2022/04/05 09:43:00;;;;;;;5.87;1.65;;;8.30;74.60;;;;;;601400;239;26594;-67
2022/04/05 09:46:01;;;;;;;4.90;1.65;;;8.30;74.40;;;;;;601934;234;26587;-67
2022/04/05 09:48:30;;;;;;;6.62;1.92;;;8.20;74.00;;;;;;611719;233;26620;-67
2022/04/05 09:51:00;;;;;;;4.37;2.47;;;8.40;74.10;;;;;;604181;237;26590;-67
2022/04/05 09:53:27;;;;;;;5.37;2.20;;;8.40;73.60;;;;;;602490;237;26656;-66
2022/04/05 09:56:03;;;;;;;5.75;1.95;;;8.30;73.40;;;;;;603147;237;26626;-67
2022/04/05 09:58:31;;;;;;;4.20;1.87;;;8.50;74.10;;;;;;606963;231;26670;-66
2022/04/05 10:01:06;;;;;;;8.18;1.80;;;8.50;74.10;;;;;;609753;235;26640;-67
2022/04/05 10:03:31;;;;;;;8.85;1.83;;;8.50;74.70;;;;;;604508;235;26680;-66
2022/04/05 10:05:58;;;;;;;3.03;1.70;;;8.50;74.60;;;;;;604527;233;26896;-66
2022/04/05 10:08:25;;;;;;;7.65;1.98;;;8.70;74.00;;;;;;604203;236;26587;-67
2022/04/05 10:10:52;;;;;;;3.10;1.95;;;8.60;74.10;;;;;;610424;235;27139;-66
2022/04/05 10:13:20;;;;;;;5.62;1.48;;;8.90;74.30;;;;;;604980;235;26600;-66
2022/04/05 10:15:48;;;;;;;4.25;1.65;;;9.10;73.60;;;;;;604226;238;26627;-67
2022/04/05 10:18:15;;;;;;;5.05;1.87;;;9.10;73.60;;;;;;602348;237;26571;-67
2022/04/05 10:20:43;;;;;;;2.92;1.20;;;9.40;73.50;;;;;;606884;236;26588;-67
2022/04/05 10:23:10;;;;;;;2.90;1.40;;;9.40;72.50;;;;;;605484;236;26793;-66
2022/04/05 10:25:39;;;;;;;6.75;1.83;;;9.30;72.70;;;;;;601725;237;26614;-67
2022/04/05 10:28:05;;;;;;;3.42;1.35;;;9.10;73.00;;;;;;603221;237;26832;-67
2022/04/05 10:30:36;;;;;;;3.58;1.33;;;9.30;73.50;;;;;;604459;238;26590;-67
2022/04/05 10:33:04;;;;;;;2.97;1.40;;;9.30;73.50;;;;;;603996;237;26948;-68
2022/04/05 10:35:31;;;;;;;9.63;1.73;;;9.60;74.20;;;;;;604748;234;26605;-68
2022/04/05 10:38:14;;;;;;;7.82;1.70;;;9.50;73.70;;;;;;604898;237;26907;-68
2022/04/05 10:40:41;;;;;;;5.10;1.52;;;9.20;72.40;;;;;;604998;237;26558;-69
2022/04/05 10:43:15;;;;;;;6.62;1.42;;;9.00;73.50;;;;;;604955;238;26808;-68
2022/04/05 10:45:43;;;;;;;2.35;1.30;;;8.90;74.40;;;;;;604951;232;26586;-69
2022/04/05 10:48:13;;;;;;;2.28;1.52;;;9.50;73.10;;;;;;604966;237;26561;-69
2022/04/05 10:50:40;;;;;;;1.90;1.40;;;9.50;73.00;;;;;;604836;238;26543;-69
2022/04/05 10:53:11;;;;;;;1.52;1.17;;;9.80;73.10;;;;;;604945;237;26550;-68
2022/04/05 10:55:50;;;;;;;2.87;1.27;;;10.00;70.30;;;;;;604787;238;26847;-67
2022/04/05 10:58:17;;;;;;;4.20;1.50;;;10.10;70.10;;;;;;604591;233;26906;-68
2022/04/05 11:00:44;;;;;;;4.12;1.65;;;10.00;70.00;;;;;;604619;238;26596;-68
2022/04/05 11:03:11;;;;;;;1.60;1.27;;;10.30;68.90;;;;;;604400;238;26845;-68
2022/04/05 11:05:39;;;;;;;4.87;1.67;;;10.10;68.00;;;;;;604897;235;26620;-68
2022/04/05 11:08:07;;;;;;;2.67;1.30;;;9.90;70.10;;;;;;606123;236;27040;-68
2022/04/05 11:10:45;;;;;;;3.45;1.20;;;9.80;70.40;;;;;;605343;237;26919;-69
2022/04/05 11:13:13;;;;;;;1.85;1.33;;;9.90;70.50;;;;;;605442;236;26819;-68
2022/04/05 11:15:58;;;;;;;3.60;1.50;;;9.50;69.90;;;;;;604972;237;26602;-68
2022/04/05 11:18:25;;;;;;;1.40;1.27;;;9.50;69.90;;;;;;605181;237;26852;-69
2022/04/05 11:20:52;;;;;;;1.98;1.50;;;9.30;70.70;;;;;;605164;237;26634;-68
2022/04/05 11:23:19;;;;;;;2.92;1.70;;;9.50;71.50;;;;;;605203;237;26806;-68
2022/04/05 11:25:47;;;;;;;4.47;1.65;;;9.20;72.30;;;;;;604853;233;26615;-67
2022/04/05 11:28:19;;;;;;;1.60;1.10;;;9.10;71.70;;;;;;604881;237;26587;-71
2022/04/05 11:30:45;;;;;;;1.52;1.25;;;9.10;71.70;;;;;;604660;237;26582;-69
2022/04/05 11:33:21;;;;;;;5.35;1.35;;;9.00;71.70;;;;;;604441;235;26587;-69
2022/04/05 11:35:49;;;;;;;4.03;1.42;;;9.00;71.60;;;;;;607353;235;26586;-69
2022/04/05 11:38:33;;;;;;;3.45;1.33;;;8.90;72.30;;;;;;606875;236;26577;-70
2022/04/05 11:41:02;;;;;;;4.22;1.30;;;8.80;73.10;;;;;;607449;235;26648;-71
2022/04/05 11:43:31;;;;;;;4.72;1.60;;;8.70;72.40;;;;;;602948;238;26828;-69
2022/04/05 11:46:00;;;;;;;1.52;1.10;;;8.90;72.20;;;;;;602286;237;26644;-69
2022/04/05 11:48:27;;;;;;;2.50;1.30;;;9.10;70.70;;;;;;610421;235;26651;-69
2022/04/05 11:50:54;;;;;;;2.45;1.10;;;9.10;70.20;;;;;;602297;232;26834;-66
2022/04/05 11:53:22;;;;;;;3.15;1.30;;;9.10;70.70;;;;;;605598;233;26680;-68
2022/04/05 11:56:01;;;;;;;3.10;1.40;;;9.00;70.60;;;;;;606166;235;26642;-68
2022/04/05 11:58:30;;;;;;;3.00;1.20;;;9.20;71.10;;;;;;602064;238;26621;-68
2022/04/05 12:00:56;;;;;;;4.20;1.45;;;9.50;70.50;;;;;;604455;238;26838;-68
2022/04/05 12:03:23;;;;;;;2.03;1.20;;;9.60;70.30;;;;;;603129;232;26759;-67
2022/04/05 12:05:52;;;;;;;2.12;1.40;;;9.60;70.20;;;;;;603702;234;26623;-67
2022/04/05 12:08:19;;;;;;;6.32;1.60;;;9.60;70.00;;;;;;601817;237;26637;-67
2022/04/05 12:10:46;;;;;;;3.20;1.40;;;9.60;70.00;;;;;;602222;238;26864;-67
2022/04/05 12:13:14;;;;;;;1.25;1.10;;;9.50;69.60;;;;;;606904;236;26602;-68
2022/04/05 12:15:41;;;;;;;2.53;1.37;;;9.60;69.80;;;;;;606496;236;26653;-67
2022/04/05 12:18:16;;;;;;;1.33;1.23;;;9.50;70.10;;;;;;603074;237;26797;-67
2022/04/05 12:20:42;;;;;;;2.53;1.40;;;9.40;70.60;;;;;;609625;235;26663;-67
2022/04/05 12:23:17;;;;;;;3.10;1.50;;;9.30;69.80;;;;;;600865;235;26590;-67
2022/04/05 12:25:50;;;;;;;1.70;1.20;;;9.50;70.00;;;;;;609380;234;26647;-67
2022/04/05 12:28:18;;;;;;;2.28;1.00;;;9.20;70.00;;;;;;605854;234;26637;-67
2022/04/05 12:30:46;;;;;;;2.45;1.25;;;9.20;70.90;;;;;;603901;235;26580;-67
2022/04/05 12:33:13;;;;;;;2.75;1.33;;;9.20;70.90;;;;;;605000;236;26644;-67
2022/04/05 12:35:41;;;;;;;3.70;1.30;;;9.50;71.20;;;;;;603793;237;26621;-67
2022/04/05 12:38:08;;;;;;;3.08;1.30;;;10.60;68.00;;;;;;609098;236;26849;-67
2022/04/05 12:40:36;;;;;;;5.60;1.30;;;10.60;68.00;;;;;;609093;236;26875;-67
2022/04/05 12:43:15;;;;;;;3.92;1.30;;;11.10;67.70;;;;;;603373;238;26594;-67
2022/04/05 12:45:42;;;;;;;3.15;1.30;;;11.40;66.30;;;;;;607106;236;26606;-67
2022/04/05 12:48:13;;;;;;;2.87;1.02;;;11.40;65.90;;;;;;603267;235;26605;-67
2022/04/05 12:50:43;;;;;;;2.87;1.27;;;10.70;65.70;;;;;;602444;232;26590;-67
2022/04/05 12:53:10;;;;;;;4.15;1.48;;;10.70;65.70;;;;;;603521;235;26546;-66
2022/04/05 12:55:38;;;;;;;2.15;1.20;;;10.20;67.00;;;;;;608044;235;26659;-67
2022/04/05 12:58:07;;;;;;;4.97;1.40;;;10.10;67.50;;;;;;603729;235;26642;-70
2022/04/05 13:00:34;;;;;;;1.75;1.12;;;10.00;68.20;;;;;;604505;238;26599;-67